sensor_id;sensor_type;location;lat;lon;timestamp;pressure;altitude;pressure_sealevel;temperature;humidity
62510;BME280;48558;48.242;11.654;2023-07-24T00:00:22;95665.09;;;16.24;100.00
62510;BME280;48558;48.242;11.654;2023-07-24T00:04:36;95649.69;;;16.17;100.00
62510;BME280;48558;48.242;11.654;2023-07-24T00:08:49;95643.63;;;16.19;100.00
62510;BME280;48558;48.242;11.654;2023-07-24T00:13:02;95639.81;;;16.16;100.00
62510;BME280;48558;48.242;11.654;2023-07-24T00:17:15;95627.94;;;16.10;100.00
62510;BME280;48558;48.242;11.654;2023-07-24T00:21:28;95619.13;;;16.01;100.00
62510;BME280;48558;48.242;11.654;2023-07-24T00:25:40;95631.47;;;16.11;100.00
62510;BME280;48558;48.242;11.654;2023-07-24T00:29:53;95628.19;;;16.12;100.00
62510;BME280;48558;48.242;11.654;2023-07-24T00:34:05;95616.28;;;16.12;100.00
62510;BME280;48558;48.242;11.654;2023-07-24T00:38:18;95593.38;;;15.84;100.00
62510;BME280;48558;48.242;11.654;2023-07-24T00:42:30;95598.16;;;15.94;100.00
62510;BME280;48558;48.242;11.654;2023-07-24T00:46:44;95594.84;;;15.90;100.00
62510;BME280;48558;48.242;11.654;2023-07-24T00:50:56;95595.09;;;15.92;100.00
62510;BME280;48558;48.242;11.654;2023-07-24T00:55:10;95592.91;;;15.79;100.00
62510;BME280;48558;48.242;11.654;2023-07-24T00:59:25;95584.81;;;15.76;100.00
62510;BME280;48558;48.242;11.654;2023-07-24T01:03:38;95596.44;;;15.80;100.00
62510;BME280;48558;48.242;11.654;2023-07-24T01:07:52;95603.84;;;15.66;100.00
62510;BME280;48558;48.242;11.654;2023-07-24T01:12:10;95600.78;;;15.70;100.00
62510;BME280;48558;48.242;11.654;2023-07-24T01:16:37;95591.97;;;15.60;100.00
62510;BME280;48558;48.242;11.654;2023-07-24T01:20:51;95585.13;;;15.56;100.00
62510;BME280;48558;48.242;11.654;2023-07-24T01:25:27;95571.50;;;15.58;100.00
62510;BME280;48558;48.242;11.654;2023-07-24T01:29:43;95567.41;;;15.64;100.00
62510;BME280;48558;48.242;11.654;2023-07-24T01:33:55;95568.66;;;15.63;100.00
62510;BME280;48558;48.242;11.654;2023-07-24T01:38:08;95547.69;;;15.57;100.00
62510;BME280;48558;48.242;11.654;2023-07-24T01:42:22;95535.19;;;15.74;100.00
62510;BME280;48558;48.242;11.654;2023-07-24T01:46:35;95547.22;;;15.94;100.00
62510;BME280;48558;48.242;11.654;2023-07-24T01:50:48;95542.69;;;15.91;100.00
62510;BME280;48558;48.242;11.654;2023-07-24T01:55:00;95569.69;;;16.07;100.00
62510;BME280;48558;48.242;11.654;2023-07-24T01:59:13;95591.16;;;16.17;100.00
62510;BME280;48558;48.242;11.654;2023-07-24T02:03:26;95607.56;;;16.26;100.00
62510;BME280;48558;48.242;11.654;2023-07-24T02:07:39;95610.34;;;17.21;99.93
62510;BME280;48558;48.242;11.654;2023-07-24T02:11:51;95582.91;;;17.44;97.75
62510;BME280;48558;48.242;11.654;2023-07-24T02:16:04;95547.75;;;17.35;100.00
62510;BME280;48558;48.242;11.654;2023-07-24T02:20:17;95563.03;;;17.29;98.51
62510;BME280;48558;48.242;11.654;2023-07-24T02:24:29;95580.78;;;17.55;94.71
62510;BME280;48558;48.242;11.654;2023-07-24T02:28:42;95616.38;;;17.55;94.64
62510;BME280;48558;48.242;11.654;2023-07-24T02:32:54;95631.34;;;17.76;91.38
62510;BME280;48558;48.242;11.654;2023-07-24T02:37:09;95638.97;;;17.75;91.83
62510;BME280;48558;48.242;11.654;2023-07-24T02:41:21;95644.19;;;17.66;94.85
62510;BME280;48558;48.242;11.654;2023-07-24T02:45:34;95624.13;;;17.86;90.64
62510;BME280;48558;48.242;11.654;2023-07-24T02:49:47;95614.44;;;17.68;92.17
62510;BME280;48558;48.242;11.654;2023-07-24T02:53:59;95590.16;;;17.58;97.21
62510;BME280;48558;48.242;11.654;2023-07-24T02:58:12;95573.72;;;17.54;98.96
62510;BME280;48558;48.242;11.654;2023-07-24T03:02:25;95592.50;;;17.54;100.00
62510;BME280;48558;48.242;11.654;2023-07-24T03:06:39;95596.06;;;17.49;100.00
62510;BME280;48558;48.242;11.654;2023-07-24T03:10:52;95681.66;;;17.76;100.00
62510;BME280;48558;48.242;11.654;2023-07-24T03:15:05;95766.06;;;17.69;100.00
62510;BME280;48558;48.242;11.654;2023-07-24T03:19:18;95864.75;;;17.53;100.00
62510;BME280;48558;48.242;11.654;2023-07-24T03:23:32;95858.66;;;17.49;100.00
62510;BME280;48558;48.242;11.654;2023-07-24T03:27:45;95845.00;;;17.40;100.00
62510;BME280;48558;48.242;11.654;2023-07-24T03:31:57;95813.03;;;17.35;100.00
62510;BME280;48558;48.242;11.654;2023-07-24T03:36:10;95780.97;;;17.47;100.00
62510;BME280;48558;48.242;11.654;2023-07-24T03:40:22;95727.00;;;17.34;100.00
62510;BME280;48558;48.242;11.654;2023-07-24T03:44:35;95739.53;;;17.21;100.00
62510;BME280;48558;48.242;11.654;2023-07-24T03:48:47;95695.25;;;17.37;100.00
62510;BME280;48558;48.242;11.654;2023-07-24T03:53:02;95622.97;;;17.28;100.00
62510;BME280;48558;48.242;11.654;2023-07-24T03:57:15;95589.53;;;17.22;100.00
62510;BME280;48558;48.242;11.654;2023-07-24T04:01:27;95590.28;;;17.23;100.00
62510;BME280;48558;48.242;11.654;2023-07-24T04:05:40;95597.72;;;17.14;100.00
62510;BME280;48558;48.242;11.654;2023-07-24T04:09:52;95600.22;;;17.18;100.00
62510;BME280;48558;48.242;11.654;2023-07-24T04:14:05;95607.19;;;17.06;100.00
62510;BME280;48558;48.242;11.654;2023-07-24T04:18:17;95613.19;;;17.15;100.00
62510;BME280;48558;48.242;11.654;2023-07-24T04:22:30;95587.59;;;17.36;100.00
62510;BME280;48558;48.242;11.654;2023-07-24T04:26:43;95566.19;;;17.19;100.00
62510;BME280;48558;48.242;11.654;2023-07-24T04:31:00;95602.56;;;17.38;100.00
62510;BME280;48558;48.242;11.654;2023-07-24T04:35:13;95593.94;;;17.36;100.00
62510;BME280;48558;48.242;11.654;2023-07-24T04:39:26;95637.28;;;17.18;100.00
62510;BME280;48558;48.242;11.654;2023-07-24T04:43:38;95656.19;;;17.31;100.00
62510;BME280;48558;48.242;11.654;2023-07-24T04:47:51;95632.16;;;17.23;100.00
62510;BME280;48558;48.242;11.654;2023-07-24T04:52:04;95637.28;;;17.18;100.00
62510;BME280;48558;48.242;11.654;2023-07-24T04:56:16;95626.59;;;17.23;100.00
62510;BME280;48558;48.242;11.654;2023-07-24T05:00:29;95616.69;;;17.21;100.00
62510;BME280;48558;48.242;11.654;2023-07-24T05:04:42;95642.91;;;17.37;100.00
62510;BME280;48558;48.242;11.654;2023-07-24T05:08:54;95653.59;;;17.39;100.00
62510;BME280;48558;48.242;11.654;2023-07-24T05:13:07;95646.09;;;17.52;100.00
62510;BME280;48558;48.242;11.654;2023-07-24T05:17:23;95623.91;;;17.84;100.00
62510;BME280;48558;48.242;11.654;2023-07-24T05:21:36;95608.84;;;17.87;100.00
62510;BME280;48558;48.242;11.654;2023-07-24T05:25:59;95575.63;;;18.02;100.00
62510;BME280;48558;48.242;11.654;2023-07-24T05:30:13;95569.72;;;17.68;100.00
62510;BME280;48558;48.242;11.654;2023-07-24T05:34:25;95597.78;;;17.57;100.00
62510;BME280;48558;48.242;11.654;2023-07-24T05:38:38;95575.81;;;17.67;100.00
62510;BME280;48558;48.242;11.654;2023-07-24T05:42:50;95560.06;;;18.07;100.00
62510;BME280;48558;48.242;11.654;2023-07-24T05:47:03;95571.56;;;18.35;100.00
62510;BME280;48558;48.242;11.654;2023-07-24T05:51:16;95575.03;;;18.59;100.00
62510;BME280;48558;48.242;11.654;2023-07-24T05:55:28;95552.19;;;19.00;100.00
62510;BME280;48558;48.242;11.654;2023-07-24T05:59:41;95548.13;;;19.41;100.00
62510;BME280;48558;48.242;11.654;2023-07-24T06:03:53;95543.09;;;19.86;100.00
62510;BME280;48558;48.242;11.654;2023-07-24T06:08:06;95527.16;;;20.28;100.00
62510;BME280;48558;48.242;11.654;2023-07-24T06:12:21;95509.50;;;20.61;100.00
62510;BME280;48558;48.242;11.654;2023-07-24T06:16:34;95503.31;;;20.83;100.00
62510;BME280;48558;48.242;11.654;2023-07-24T06:20:47;95535.75;;;21.12;100.00
62510;BME280;48558;48.242;11.654;2023-07-24T06:25:05;95530.50;;;21.09;97.59
62510;BME280;48558;48.242;11.654;2023-07-24T06:29:17;95494.09;;;20.75;100.00
62510;BME280;48558;48.242;11.654;2023-07-24T06:33:30;95481.66;;;20.91;100.00
62510;BME280;48558;48.242;11.654;2023-07-24T06:37:43;95461.41;;;21.13;97.41
62510;BME280;48558;48.242;11.654;2023-07-24T06:41:56;95477.94;;;21.53;94.38
62510;BME280;48558;48.242;11.654;2023-07-24T06:46:08;95472.88;;;22.09;87.77
62510;BME280;48558;48.242;11.654;2023-07-24T06:50:21;95458.88;;;21.74;87.18
62510;BME280;48558;48.242;11.654;2023-07-24T06:54:33;95465.78;;;22.08;84.91
62510;BME280;48558;48.242;11.654;2023-07-24T06:58:46;95477.66;;;22.45;86.21
62510;BME280;48558;48.242;11.654;2023-07-24T07:02:59;95486.88;;;22.91;80.37
62510;BME280;48558;48.242;11.654;2023-07-24T07:07:11;95485.16;;;23.18;77.94
62510;BME280;48558;48.242;11.654;2023-07-24T07:11:24;95500.50;;;24.09;70.77
62510;BME280;48558;48.242;11.654;2023-07-24T07:15:36;95509.75;;;25.16;63.80
62510;BME280;48558;48.242;11.654;2023-07-24T07:19:49;95540.50;;;25.12;62.76
62510;BME280;48558;48.242;11.654;2023-07-24T07:24:01;95561.25;;;24.50;67.35
62510;BME280;48558;48.242;11.654;2023-07-24T07:28:15;95602.59;;;23.53;69.68
62510;BME280;48558;48.242;11.654;2023-07-24T07:32:28;95636.97;;;22.99;71.70
62510;BME280;48558;48.242;11.654;2023-07-24T07:36:40;95701.25;;;23.15;67.10
62510;BME280;48558;48.242;11.654;2023-07-24T07:40:53;95712.41;;;22.70;70.07
62510;BME280;48558;48.242;11.654;2023-07-24T07:45:06;95719.53;;;22.35;73.55
62510;BME280;48558;48.242;11.654;2023-07-24T07:49:19;95728.47;;;21.49;85.34
62510;BME280;48558;48.242;11.654;2023-07-24T07:53:31;95712.56;;;21.10;92.90
62510;BME280;48558;48.242;11.654;2023-07-24T07:57:44;95696.94;;;20.68;97.65
62510;BME280;48558;48.242;11.654;2023-07-24T08:01:56;95712.50;;;20.56;100.00
62510;BME280;48558;48.242;11.654;2023-07-24T08:06:09;95723.22;;;20.44;100.00
62510;BME280;48558;48.242;11.654;2023-07-24T08:10:22;95720.72;;;20.41;100.00
62510;BME280;48558;48.242;11.654;2023-07-24T08:14:35;95716.63;;;20.29;100.00
62510;BME280;48558;48.242;11.654;2023-07-24T08:18:48;95711.09;;;20.49;100.00
62510;BME280;48558;48.242;11.654;2023-07-24T08:23:00;95713.97;;;20.70;100.00
62510;BME280;48558;48.242;11.654;2023-07-24T08:27:13;95706.94;;;20.77;97.70
62510;BME280;48558;48.242;11.654;2023-07-24T08:31:25;95688.34;;;20.87;95.48
62510;BME280;48558;48.242;11.654;2023-07-24T08:35:38;95668.13;;;20.88;91.43
62510;BME280;48558;48.242;11.654;2023-07-24T08:39:51;95629.16;;;21.26;88.30
62510;BME280;48558;48.242;11.654;2023-07-24T08:44:09;95634.66;;;21.11;89.41
62510;BME280;48558;48.242;11.654;2023-07-24T08:48:22;95600.13;;;21.23;86.34
62510;BME280;48558;48.242;11.654;2023-07-24T08:52:35;95571.88;;;21.08;86.49
62510;BME280;48558;48.242;11.654;2023-07-24T08:56:48;95539.16;;;21.39;89.22
62510;BME280;48558;48.242;11.654;2023-07-24T09:01:03;95532.84;;;21.89;88.00
62510;BME280;48558;48.242;11.654;2023-07-24T09:05:16;95534.50;;;22.36;87.42
62510;BME280;48558;48.242;11.654;2023-07-24T09:09:30;95549.03;;;23.00;81.51
62510;BME280;48558;48.242;11.654;2023-07-24T09:13:45;95529.50;;;23.10;79.64
62510;BME280;48558;48.242;11.654;2023-07-24T09:17:57;95537.22;;;23.02;82.82
62510;BME280;48558;48.242;11.654;2023-07-24T09:22:19;95554.84;;;22.72;81.51
62510;BME280;48558;48.242;11.654;2023-07-24T09:26:34;95541.72;;;22.90;78.83
62510;BME280;48558;48.242;11.654;2023-07-24T09:30:57;95538.16;;;22.74;80.86
62510;BME280;48558;48.242;11.654;2023-07-24T09:35:17;95528.19;;;22.80;81.22
62510;BME280;48558;48.242;11.654;2023-07-24T09:39:30;95527.00;;;22.53;79.50
62510;BME280;48558;48.242;11.654;2023-07-24T09:43:43;95504.28;;;22.44;80.67
62510;BME280;48558;48.242;11.654;2023-07-24T09:47:56;95506.03;;;23.00;80.74
62510;BME280;48558;48.242;11.654;2023-07-24T09:52:20;95501.44;;;25.35;69.08
62510;BME280;48558;48.242;11.654;2023-07-24T09:56:33;95504.53;;;27.60;59.74
62510;BME280;48558;48.242;11.654;2023-07-24T10:01:03;95485.38;;;26.60;58.64
62510;BME280;48558;48.242;11.654;2023-07-24T10:05:20;95478.50;;;26.53;60.82
62510;BME280;48558;48.242;11.654;2023-07-24T10:09:33;95478.88;;;27.13;59.23
62510;BME280;48558;48.242;11.654;2023-07-24T10:13:46;95489.66;;;27.24;57.95
62510;BME280;48558;48.242;11.654;2023-07-24T10:18:06;95482.00;;;26.97;57.41
62510;BME280;48558;48.242;11.654;2023-07-24T10:22:20;95483.94;;;27.14;57.35
62510;BME280;48558;48.242;11.654;2023-07-24T10:26:36;95480.53;;;27.25;56.67
62510;BME280;48558;48.242;11.654;2023-07-24T10:30:55;95485.78;;;27.29;54.70
62510;BME280;48558;48.242;11.654;2023-07-24T10:35:09;95477.75;;;26.79;60.22
62510;BME280;48558;48.242;11.654;2023-07-24T10:39:21;95492.00;;;26.72;61.21
62510;BME280;48558;48.242;11.654;2023-07-24T10:43:49;95489.59;;;27.98;51.06
62510;BME280;48558;48.242;11.654;2023-07-24T10:48:03;95491.28;;;29.01;47.67
62510;BME280;48558;48.242;11.654;2023-07-24T10:52:16;95487.50;;;28.08;49.49
62510;BME280;48558;48.242;11.654;2023-07-24T10:56:29;95467.63;;;26.86;52.34
62510;BME280;48558;48.242;11.654;2023-07-24T11:00:43;95463.00;;;26.90;49.45
62510;BME280;48558;48.242;11.654;2023-07-24T11:04:58;95447.28;;;27.83;49.91
62510;BME280;48558;48.242;11.654;2023-07-24T11:09:12;95462.53;;;28.57;45.96
62510;BME280;48558;48.242;11.654;2023-07-24T11:13:27;95456.03;;;30.56;41.32
62510;BME280;48558;48.242;11.654;2023-07-24T11:17:41;95440.19;;;31.23;39.53
62510;BME280;48558;48.242;11.654;2023-07-24T11:21:55;95442.16;;;31.55;41.78
62510;BME280;48558;48.242;11.654;2023-07-24T11:26:10;95416.81;;;31.49;38.71
62510;BME280;48558;48.242;11.654;2023-07-24T11:30:23;95390.28;;;31.72;37.51
62510;BME280;48558;48.242;11.654;2023-07-24T11:34:37;95401.28;;;31.52;40.60
62510;BME280;48558;48.242;11.654;2023-07-24T11:38:51;95428.25;;;31.86;39.19
62510;BME280;48558;48.242;11.654;2023-07-24T11:43:04;95422.84;;;31.18;38.11
62510;BME280;48558;48.242;11.654;2023-07-24T11:47:26;95396.59;;;31.45;40.93
62510;BME280;48558;48.242;11.654;2023-07-24T11:51:40;95369.59;;;31.85;36.80
62510;BME280;48558;48.242;11.654;2023-07-24T11:55:55;95358.56;;;30.25;40.86
62510;BME280;48558;48.242;11.654;2023-07-24T12:00:20;95373.81;;;28.89;41.81
62510;BME280;48558;48.242;11.654;2023-07-24T12:04:33;95386.34;;;27.27;45.75
62510;BME280;48558;48.242;11.654;2023-07-24T12:08:46;95384.97;;;26.44;47.69
62510;BME280;48558;48.242;11.654;2023-07-24T12:12:59;95409.84;;;25.31;50.89
62510;BME280;48558;48.242;11.654;2023-07-24T12:17:17;95428.59;;;25.43;52.95
62510;BME280;48558;48.242;11.654;2023-07-24T12:21:32;95471.91;;;24.38;58.95
62510;BME280;48558;48.242;11.654;2023-07-24T12:25:45;95518.03;;;23.93;62.43
62510;BME280;48558;48.242;11.654;2023-07-24T12:29:58;95586.84;;;23.42;67.89
62510;BME280;48558;48.242;11.654;2023-07-24T12:34:11;95590.63;;;22.49;81.69
62510;BME280;48558;48.242;11.654;2023-07-24T12:38:23;95569.31;;;22.10;90.45
62510;BME280;48558;48.242;11.654;2023-07-24T12:42:36;95525.91;;;22.56;90.66
62510;BME280;48558;48.242;11.654;2023-07-24T12:46:48;95515.84;;;24.23;82.84
62510;BME280;48558;48.242;11.654;2023-07-24T12:51:03;95508.34;;;24.18;80.32
62510;BME280;48558;48.242;11.654;2023-07-24T12:55:15;95527.91;;;23.69;82.57
62510;BME280;48558;48.242;11.654;2023-07-24T12:59:29;95542.47;;;22.67;89.68
62510;BME280;48558;48.242;11.654;2023-07-24T13:03:41;95558.94;;;22.56;90.30
62510;BME280;48558;48.242;11.654;2023-07-24T13:07:54;95547.38;;;21.73;94.91
62510;BME280;48558;48.242;11.654;2023-07-24T13:12:08;95524.31;;;21.38;97.25
62510;BME280;48558;48.242;11.654;2023-07-24T13:16:21;95528.84;;;21.41;96.47
62510;BME280;48558;48.242;11.654;2023-07-24T13:20:34;95517.34;;;21.04;97.55
62510;BME280;48558;48.242;11.654;2023-07-24T13:24:46;95505.31;;;21.24;93.84
62510;BME280;48558;48.242;11.654;2023-07-24T13:28:59;95478.13;;;21.19;94.21
62510;BME280;48558;48.242;11.654;2023-07-24T13:33:11;95456.91;;;20.82;96.75
62510;BME280;48558;48.242;11.654;2023-07-24T13:37:24;95439.91;;;20.67;99.99
62510;BME280;48558;48.242;11.654;2023-07-24T13:41:37;95449.44;;;20.85;96.95
62510;BME280;48558;48.242;11.654;2023-07-24T13:45:50;95470.94;;;21.10;100.00
62510;BME280;48558;48.242;11.654;2023-07-24T13:50:03;95450.84;;;21.78;91.61
62510;BME280;48558;48.242;11.654;2023-07-24T13:54:16;95444.81;;;21.74;90.71
62510;BME280;48558;48.242;11.654;2023-07-24T13:58:28;95419.09;;;22.21;91.13
62510;BME280;48558;48.242;11.654;2023-07-24T14:02:40;95415.00;;;23.44;83.14
62510;BME280;48558;48.242;11.654;2023-07-24T14:06:53;95448.22;;;24.33;74.67
62510;BME280;48558;48.242;11.654;2023-07-24T14:11:06;95438.31;;;24.74;74.14
62510;BME280;48558;48.242;11.654;2023-07-24T14:15:18;95428.41;;;25.07;72.90
62510;BME280;48558;48.242;11.654;2023-07-24T14:19:31;95427.91;;;25.18;65.69
62510;BME280;48558;48.242;11.654;2023-07-24T14:23:43;95424.31;;;25.18;68.02
62510;BME280;48558;48.242;11.654;2023-07-24T14:27:57;95429.50;;;26.70;62.27
62510;BME280;48558;48.242;11.654;2023-07-24T14:32:10;95430.44;;;27.47;60.31
62510;BME280;48558;48.242;11.654;2023-07-24T14:36:22;95415.59;;;28.06;56.20
62510;BME280;48558;48.242;11.654;2023-07-24T14:40:35;95404.81;;;28.14;54.41
62510;BME280;48558;48.242;11.654;2023-07-24T14:44:48;95390.13;;;29.19;50.44
62510;BME280;48558;48.242;11.654;2023-07-24T14:49:00;95374.25;;;29.70;51.92
62510;BME280;48558;48.242;11.654;2023-07-24T14:53:13;95387.34;;;31.10;47.27
62510;BME280;48558;48.242;11.654;2023-07-24T14:57:26;95384.78;;;30.00;48.15
62510;BME280;48558;48.242;11.654;2023-07-24T15:01:39;95378.13;;;31.23;44.50
62510;BME280;48558;48.242;11.654;2023-07-24T15:05:52;95375.16;;;30.28;46.06
62510;BME280;48558;48.242;11.654;2023-07-24T15:10:06;95378.56;;;30.48;46.86
62510;BME280;48558;48.242;11.654;2023-07-24T15:14:21;95379.72;;;29.99;48.49
62510;BME280;48558;48.242;11.654;2023-07-24T15:18:33;95368.50;;;30.70;44.98
62510;BME280;48558;48.242;11.654;2023-07-24T15:22:47;95362.22;;;31.32;44.00
62510;BME280;48558;48.242;11.654;2023-07-24T15:27:00;95384.09;;;31.27;44.79
62510;BME280;48558;48.242;11.654;2023-07-24T15:31:21;95384.28;;;30.04;47.40
62510;BME280;48558;48.242;11.654;2023-07-24T15:35:34;95393.19;;;31.60;43.39
62510;BME280;48558;48.242;11.654;2023-07-24T15:39:47;95371.72;;;29.53;48.40
62510;BME280;48558;48.242;11.654;2023-07-24T15:44:00;95378.44;;;27.63;53.46
62510;BME280;48558;48.242;11.654;2023-07-24T15:48:14;95372.34;;;26.73;57.04
62510;BME280;48558;48.242;11.654;2023-07-24T15:52:35;95371.94;;;26.31;56.65
62510;BME280;48558;48.242;11.654;2023-07-24T15:56:48;95369.78;;;25.25;58.41
62510;BME280;48558;48.242;11.654;2023-07-24T16:01:01;95361.16;;;25.06;57.20
62510;BME280;48558;48.242;11.654;2023-07-24T16:05:21;95365.72;;;24.59;58.22
62510;BME280;48558;48.242;11.654;2023-07-24T16:09:34;95370.00;;;24.43;60.28
62510;BME280;48558;48.242;11.654;2023-07-24T16:13:46;95372.72;;;24.34;59.78
62510;BME280;48558;48.242;11.654;2023-07-24T16:17:59;95367.66;;;24.07;61.65
62510;BME280;48558;48.242;11.654;2023-07-24T16:22:14;95361.16;;;23.58;59.57
62510;BME280;48558;48.242;11.654;2023-07-24T16:26:27;95387.75;;;23.47;59.85
62510;BME280;48558;48.242;11.654;2023-07-24T16:30:40;95439.72;;;22.99;63.19
62510;BME280;48558;48.242;11.654;2023-07-24T16:34:53;95454.97;;;22.65;64.31
62510;BME280;48558;48.242;11.654;2023-07-24T16:39:05;95405.97;;;22.61;64.73
62510;BME280;48558;48.242;11.654;2023-07-24T16:43:18;95420.78;;;22.16;74.21
62510;BME280;48558;48.242;11.654;2023-07-24T16:47:30;95406.09;;;21.95;81.79
62510;BME280;48558;48.242;11.654;2023-07-24T16:51:43;95398.72;;;21.77;86.84
62510;BME280;48558;48.242;11.654;2023-07-24T16:55:55;95400.38;;;21.65;87.61
62510;BME280;48558;48.242;11.654;2023-07-24T17:00:08;95340.22;;;21.83;88.82
62510;BME280;48558;48.242;11.654;2023-07-24T17:04:21;95342.59;;;21.41;92.23
62510;BME280;48558;48.242;11.654;2023-07-24T17:08:34;95334.44;;;20.79;94.80
62510;BME280;48558;48.242;11.654;2023-07-24T17:12:46;95306.44;;;20.58;95.12
62510;BME280;48558;48.242;11.654;2023-07-24T17:16:59;95293.19;;;20.31;98.62
62510;BME280;48558;48.242;11.654;2023-07-24T17:21:12;95260.81;;;20.30;99.93
62510;BME280;48558;48.242;11.654;2023-07-24T17:25:25;95245.75;;;20.20;99.29
62510;BME280;48558;48.242;11.654;2023-07-24T17:29:37;95251.34;;;20.12;100.00
62510;BME280;48558;48.242;11.654;2023-07-24T17:33:50;95251.97;;;19.97;100.00
62510;BME280;48558;48.242;11.654;2023-07-24T17:38:02;95264.09;;;20.21;100.00
62510;BME280;48558;48.242;11.654;2023-07-24T17:42:15;95298.28;;;20.12;100.00
62510;BME280;48558;48.242;11.654;2023-07-24T17:46:27;95317.66;;;19.81;100.00
62510;BME280;48558;48.242;11.654;2023-07-24T17:50:40;95332.34;;;19.74;100.00
62510;BME280;48558;48.242;11.654;2023-07-24T17:54:52;95339.00;;;19.84;100.00
62510;BME280;48558;48.242;11.654;2023-07-24T17:59:05;95333.25;;;19.90;100.00
62510;BME280;48558;48.242;11.654;2023-07-24T18:03:17;95327.09;;;19.91;100.00
62510;BME280;48558;48.242;11.654;2023-07-24T18:07:30;95315.53;;;19.74;100.00
62510;BME280;48558;48.242;11.654;2023-07-24T18:11:43;95315.75;;;19.76;100.00
62510;BME280;48558;48.242;11.654;2023-07-24T18:15:55;95322.84;;;19.77;100.00
62510;BME280;48558;48.242;11.654;2023-07-24T18:20:08;95347.97;;;19.83;100.00
62510;BME280;48558;48.242;11.654;2023-07-24T18:24:21;95358.03;;;19.65;100.00
62510;BME280;48558;48.242;11.654;2023-07-24T18:28:33;95363.19;;;19.54;100.00
62510;BME280;48558;48.242;11.654;2023-07-24T18:32:46;95368.09;;;19.40;100.00
62510;BME280;48558;48.242;11.654;2023-07-24T18:36:58;95374.00;;;19.37;100.00
62510;BME280;48558;48.242;11.654;2023-07-24T18:41:11;95387.78;;;19.34;100.00
62510;BME280;48558;48.242;11.654;2023-07-24T18:45:23;95359.75;;;19.34;100.00
62510;BME280;48558;48.242;11.654;2023-07-24T18:49:37;95374.22;;;19.39;100.00
62510;BME280;48558;48.242;11.654;2023-07-24T18:53:49;95365.06;;;19.25;100.00
62510;BME280;48558;48.242;11.654;2023-07-24T18:58:04;95343.56;;;19.20;100.00
62510;BME280;48558;48.242;11.654;2023-07-24T19:02:16;95364.69;;;19.08;100.00
62510;BME280;48558;48.242;11.654;2023-07-24T19:06:29;95399.25;;;19.10;100.00
62510;BME280;48558;48.242;11.654;2023-07-24T19:10:42;95405.06;;;19.12;100.00
62510;BME280;48558;48.242;11.654;2023-07-24T19:14:55;95420.88;;;19.23;100.00
62510;BME280;48558;48.242;11.654;2023-07-24T19:19:07;95420.63;;;19.34;100.00
62510;BME280;48558;48.242;11.654;2023-07-24T19:23:20;95451.25;;;19.19;100.00
62510;BME280;48558;48.242;11.654;2023-07-24T19:27:33;95472.16;;;19.18;100.00
62510;BME280;48558;48.242;11.654;2023-07-24T19:31:45;95438.53;;;19.18;100.00
62510;BME280;48558;48.242;11.654;2023-07-24T19:35:59;95462.69;;;19.21;100.00
62510;BME280;48558;48.242;11.654;2023-07-24T19:40:13;95456.53;;;19.22;100.00
62510;BME280;48558;48.242;11.654;2023-07-24T19:44:25;95457.50;;;19.25;100.00
62510;BME280;48558;48.242;11.654;2023-07-24T19:48:38;95462.78;;;19.28;100.00
62510;BME280;48558;48.242;11.654;2023-07-24T19:52:51;95445.13;;;19.20;100.00
62510;BME280;48558;48.242;11.654;2023-07-24T19:57:04;95443.41;;;19.17;100.00
62510;BME280;48558;48.242;11.654;2023-07-24T20:01:16;95425.50;;;19.20;100.00
62510;BME280;48558;48.242;11.654;2023-07-24T20:05:29;95406.47;;;19.06;100.00
62510;BME280;48558;48.242;11.654;2023-07-24T20:09:42;95424.56;;;18.92;100.00
62510;BME280;48558;48.242;11.654;2023-07-24T20:13:54;95436.84;;;18.89;100.00
62510;BME280;48558;48.242;11.654;2023-07-24T20:18:07;95460.75;;;18.77;100.00
62510;BME280;48558;48.242;11.654;2023-07-24T20:22:19;95460.84;;;18.71;100.00
62510;BME280;48558;48.242;11.654;2023-07-24T20:26:32;95454.28;;;18.69;100.00
62510;BME280;48558;48.242;11.654;2023-07-24T20:30:45;95463.09;;;18.73;100.00
62510;BME280;48558;48.242;11.654;2023-07-24T20:34:58;95469.56;;;18.68;100.00
62510;BME280;48558;48.242;11.654;2023-07-24T20:39:10;95469.59;;;18.81;100.00
62510;BME280;48558;48.242;11.654;2023-07-24T20:43:29;95474.00;;;18.76;100.00
62510;BME280;48558;48.242;11.654;2023-07-24T20:47:42;95454.53;;;18.84;100.00
62510;BME280;48558;48.242;11.654;2023-07-24T20:51:55;95465.03;;;18.65;100.00
62510;BME280;48558;48.242;11.654;2023-07-24T20:56:07;95474.06;;;18.57;100.00
62510;BME280;48558;48.242;11.654;2023-07-24T21:00:20;95491.00;;;18.65;100.00
62510;BME280;48558;48.242;11.654;2023-07-24T21:04:32;95482.81;;;18.67;100.00
62510;BME280;48558;48.242;11.654;2023-07-24T21:08:45;95484.66;;;18.91;100.00
62510;BME280;48558;48.242;11.654;2023-07-24T21:12:57;95492.19;;;18.83;100.00
62510;BME280;48558;48.242;11.654;2023-07-24T21:17:10;95490.56;;;19.13;100.00
62510;BME280;48558;48.242;11.654;2023-07-24T21:21:23;95460.63;;;18.95;100.00
62510;BME280;48558;48.242;11.654;2023-07-24T21:25:36;95462.50;;;19.06;100.00
62510;BME280;48558;48.242;11.654;2023-07-24T21:29:51;95456.22;;;19.00;100.00
62510;BME280;48558;48.242;11.654;2023-07-24T21:34:04;95445.25;;;19.02;100.00
62510;BME280;48558;48.242;11.654;2023-07-24T21:38:17;95458.50;;;19.01;100.00
62510;BME280;48558;48.242;11.654;2023-07-24T21:42:29;95457.31;;;18.97;100.00
62510;BME280;48558;48.242;11.654;2023-07-24T21:46:42;95473.91;;;18.95;100.00
62510;BME280;48558;48.242;11.654;2023-07-24T21:50:54;95483.69;;;19.01;100.00
62510;BME280;48558;48.242;11.654;2023-07-24T21:55:07;95500.59;;;19.09;100.00